sensor_id;sensor_type;location;lat;lon;timestamp;P1;durP1;ratioP1;P2;durP2;ratioP2
66707;SDS011;53622;0.000;0.000;2022-08-05T00:01:53;1.00;;;1.00;;
66707;SDS011;53622;0.000;0.000;2022-08-05T00:04:34;1.10;;;1.10;;
66707;SDS011;53622;0.000;0.000;2022-08-05T00:07:06;1.13;;;0.90;;
66707;SDS011;53622;0.000;0.000;2022-08-05T00:09:55;1.00;;;1.00;;
66707;SDS011;53622;0.000;0.000;2022-08-05T00:12:26;1.05;;;1.05;;
66707;SDS011;53622;0.000;0.000;2022-08-05T00:14:55;1.25;;;1.15;;
66707;SDS011;53622;0.000;0.000;2022-08-05T00:17:26;2.28;;;1.10;;
66707;SDS011;53622;0.000;0.000;2022-08-05T00:19:55;1.17;;;1.17;;
66707;SDS011;53622;0.000;0.000;2022-08-05T00:22:29;1.30;;;1.20;;
66707;SDS011;53622;0.000;0.000;2022-08-05T00:24:58;1.10;;;1.10;;
66707;SDS011;53622;0.000;0.000;2022-08-05T00:27:29;1.05;;;1.05;;
66707;SDS011;53622;0.000;0.000;2022-08-05T00:30:02;1.00;;;1.00;;
66707;SDS011;53622;0.000;0.000;2022-08-05T00:32:37;0.93;;;0.93;;
66707;SDS011;53622;0.000;0.000;2022-08-05T00:35:07;1.10;;;1.10;;
66707;SDS011;53622;0.000;0.000;2022-08-05T00:37:36;1.30;;;1.20;;
66707;SDS011;53622;0.000;0.000;2022-08-05T00:40:20;1.20;;;1.10;;
66707;SDS011;53622;0.000;0.000;2022-08-05T00:42:57;0.98;;;0.98;;
66707;SDS011;53622;0.000;0.000;2022-08-05T00:45:33;1.00;;;1.00;;
66707;SDS011;53622;0.000;0.000;2022-08-05T00:48:10;1.00;;;1.00;;
66707;SDS011;53622;0.000;0.000;2022-08-05T00:50:41;1.13;;;1.08;;
66707;SDS011;53622;0.000;0.000;2022-08-05T00:53:12;1.10;;;1.10;;
66707;SDS011;53622;0.000;0.000;2022-08-05T00:56:03;1.10;;;1.10;;
66707;SDS011;53622;0.000;0.000;2022-08-05T00:58:35;1.33;;;1.10;;
66707;SDS011;53622;0.000;0.000;2022-08-05T01:01:08;1.20;;;1.20;;
66707;SDS011;53622;0.000;0.000;2022-08-05T01:03:38;1.23;;;1.20;;
66707;SDS011;53622;0.000;0.000;2022-08-05T01:06:09;1.20;;;1.10;;
66707;SDS011;53622;0.000;0.000;2022-08-05T01:08:41;1.00;;;0.90;;
66707;SDS011;53622;0.000;0.000;2022-08-05T01:11:15;1.20;;;1.20;;
66707;SDS011;53622;0.000;0.000;2022-08-05T01:14:01;0.93;;;0.93;;
66707;SDS011;53622;0.000;0.000;2022-08-05T01:16:39;1.10;;;1.10;;
66707;SDS011;53622;0.000;0.000;2022-08-05T01:19:18;1.30;;;1.20;;
66707;SDS011;53622;0.000;0.000;2022-08-05T01:22:16;0.90;;;0.90;;
66707;SDS011;53622;0.000;0.000;2022-08-05T01:28:14;1.30;;;1.20;;
66707;SDS011;53622;0.000;0.000;2022-08-05T01:30:50;0.90;;;0.90;;
66707;SDS011;53622;0.000;0.000;2022-08-05T01:33:22;1.10;;;1.00;;
66707;SDS011;53622;0.000;0.000;2022-08-05T01:36:03;0.98;;;0.98;;
66707;SDS011;53622;0.000;0.000;2022-08-05T01:38:42;1.02;;;1.02;;
66707;SDS011;53622;0.000;0.000;2022-08-05T01:41:16;1.02;;;1.02;;
66707;SDS011;53622;0.000;0.000;2022-08-05T01:43:53;1.20;;;1.20;;
66707;SDS011;53622;0.000;0.000;2022-08-05T01:46:23;1.35;;;1.25;;
66707;SDS011;53622;0.000;0.000;2022-08-05T01:49:09;1.10;;;1.00;;
66707;SDS011;53622;0.000;0.000;2022-08-05T01:51:49;1.00;;;1.00;;
66707;SDS011;53622;0.000;0.000;2022-08-05T01:54:28;1.23;;;1.13;;
66707;SDS011;53622;0.000;0.000;2022-08-05T01:57:13;1.00;;;1.00;;
66707;SDS011;53622;0.000;0.000;2022-08-05T02:00:09;0.90;;;0.90;;
66707;SDS011;53622;0.000;0.000;2022-08-05T02:02:42;1.02;;;1.02;;
66707;SDS011;53622;0.000;0.000;2022-08-05T02:05:22;1.00;;;1.00;;
66707;SDS011;53622;0.000;0.000;2022-08-05T02:07:55;1.13;;;1.05;;
66707;SDS011;53622;0.000;0.000;2022-08-05T02:10:30;1.13;;;1.00;;
66707;SDS011;53622;0.000;0.000;2022-08-05T02:13:05;0.90;;;0.90;;
66707;SDS011;53622;0.000;0.000;2022-08-05T02:15:45;0.90;;;0.90;;
66707;SDS011;53622;0.000;0.000;2022-08-05T02:18:19;1.20;;;1.10;;
66707;SDS011;53622;0.000;0.000;2022-08-05T02:21:00;1.10;;;1.10;;
66707;SDS011;53622;0.000;0.000;2022-08-05T02:23:42;0.98;;;0.98;;
66707;SDS011;53622;0.000;0.000;2022-08-05T02:26:21;1.08;;;1.08;;
66707;SDS011;53622;0.000;0.000;2022-08-05T02:28:53;1.33;;;1.20;;
66707;SDS011;53622;0.000;0.000;2022-08-05T02:31:27;0.90;;;0.90;;
66707;SDS011;53622;0.000;0.000;2022-08-05T02:34:02;1.50;;;1.40;;
66707;SDS011;53622;0.000;0.000;2022-08-05T02:36:37;1.10;;;1.10;;
66707;SDS011;53622;0.000;0.000;2022-08-05T02:39:10;0.90;;;0.90;;
66707;SDS011;53622;0.000;0.000;2022-08-05T02:41:40;1.10;;;1.00;;
66707;SDS011;53622;0.000;0.000;2022-08-05T02:44:27;0.90;;;0.90;;
66707;SDS011;53622;0.000;0.000;2022-08-05T02:46:59;0.90;;;0.90;;
66707;SDS011;53622;0.000;0.000;2022-08-05T02:49:30;1.20;;;1.10;;
66707;SDS011;53622;0.000;0.000;2022-08-05T02:52:08;1.17;;;1.08;;
66707;SDS011;53622;0.000;0.000;2022-08-05T02:54:55;1.10;;;1.10;;
66707;SDS011;53622;0.000;0.000;2022-08-05T02:57:31;0.98;;;0.98;;
66707;SDS011;53622;0.000;0.000;2022-08-05T03:00:22;0.90;;;0.90;;
66707;SDS011;53622;0.000;0.000;2022-08-05T03:02:54;0.90;;;0.90;;
66707;SDS011;53622;0.000;0.000;2022-08-05T03:05:25;1.40;;;0.90;;
66707;SDS011;53622;0.000;0.000;2022-08-05T03:08:15;0.90;;;0.90;;
66707;SDS011;53622;0.000;0.000;2022-08-05T03:10:55;1.13;;;1.02;;
66707;SDS011;53622;0.000;0.000;2022-08-05T03:13:45;1.10;;;1.10;;
66707;SDS011;53622;0.000;0.000;2022-08-05T03:16:29;0.90;;;0.90;;
66707;SDS011;53622;0.000;0.000;2022-08-05T03:19:03;0.95;;;0.95;;
66707;SDS011;53622;0.000;0.000;2022-08-05T03:21:43;1.00;;;1.00;;
66707;SDS011;53622;0.000;0.000;2022-08-05T03:24:18;1.13;;;1.10;;
66707;SDS011;53622;0.000;0.000;2022-08-05T03:26:56;1.08;;;1.08;;
66707;SDS011;53622;0.000;0.000;2022-08-05T03:29:26;1.40;;;1.20;;
66707;SDS011;53622;0.000;0.000;2022-08-05T03:32:16;1.00;;;0.93;;
66707;SDS011;53622;0.000;0.000;2022-08-05T03:34:58;1.10;;;1.10;;
66707;SDS011;53622;0.000;0.000;2022-08-05T03:37:30;1.30;;;1.20;;
66707;SDS011;53622;0.000;0.000;2022-08-05T03:40:12;1.05;;;1.05;;
66707;SDS011;53622;0.000;0.000;2022-08-05T03:42:50;1.20;;;1.10;;
66707;SDS011;53622;0.000;0.000;2022-08-05T03:45:20;1.35;;;1.25;;
66707;SDS011;53622;0.000;0.000;2022-08-05T03:47:51;1.00;;;1.00;;
66707;SDS011;53622;0.000;0.000;2022-08-05T03:50:25;1.92;;;1.10;;
66707;SDS011;53622;0.000;0.000;2022-08-05T03:53:06;1.20;;;1.20;;
66707;SDS011;53622;0.000;0.000;2022-08-05T03:56:01;1.30;;;1.20;;
66707;SDS011;53622;0.000;0.000;2022-08-05T03:58:54;0.98;;;0.98;;
66707;SDS011;53622;0.000;0.000;2022-08-05T04:01:27;1.17;;;1.17;;
66707;SDS011;53622;0.000;0.000;2022-08-05T04:03:58;1.00;;;1.00;;
66707;SDS011;53622;0.000;0.000;2022-08-05T04:06:37;1.42;;;1.30;;
66707;SDS011;53622;0.000;0.000;2022-08-05T04:09:14;1.17;;;1.10;;
66707;SDS011;53622;0.000;0.000;2022-08-05T04:11:53;1.42;;;1.33;;
66707;SDS011;53622;0.000;0.000;2022-08-05T04:14:24;1.10;;;1.00;;
66707;SDS011;53622;0.000;0.000;2022-08-05T04:16:57;1.10;;;1.10;;
66707;SDS011;53622;0.000;0.000;2022-08-05T04:19:29;1.10;;;1.00;;
66707;SDS011;53622;0.000;0.000;2022-08-05T04:21:59;1.15;;;1.15;;
66707;SDS011;53622;0.000;0.000;2022-08-05T04:24:38;1.02;;;1.00;;
66707;SDS011;53622;0.000;0.000;2022-08-05T04:27:11;1.23;;;1.13;;
66707;SDS011;53622;0.000;0.000;2022-08-05T04:29:41;0.90;;;0.90;;
66707;SDS011;53622;0.000;0.000;2022-08-05T04:32:11;1.40;;;1.30;;
66707;SDS011;53622;0.000;0.000;2022-08-05T04:34:46;0.98;;;0.98;;
66707;SDS011;53622;0.000;0.000;2022-08-05T04:37:24;1.52;;;1.42;;
66707;SDS011;53622;0.000;0.000;2022-08-05T04:40:14;1.40;;;1.20;;
66707;SDS011;53622;0.000;0.000;2022-08-05T04:42:45;1.17;;;1.17;;
66707;SDS011;53622;0.000;0.000;2022-08-05T04:45:15;1.25;;;1.15;;
66707;SDS011;53622;0.000;0.000;2022-08-05T04:48:04;1.10;;;1.10;;
66707;SDS011;53622;0.000;0.000;2022-08-05T04:50:53;1.20;;;1.20;;
66707;SDS011;53622;0.000;0.000;2022-08-05T04:53:37;1.23;;;1.13;;
66707;SDS011;53622;0.000;0.000;2022-08-05T04:56:07;1.42;;;1.20;;
66707;SDS011;53622;0.000;0.000;2022-08-05T04:58:56;1.13;;;1.02;;
66707;SDS011;53622;0.000;0.000;2022-08-05T05:01:46;1.23;;;1.13;;
66707;SDS011;53622;0.000;0.000;2022-08-05T05:04:35;1.00;;;1.00;;
66707;SDS011;53622;0.000;0.000;2022-08-05T05:07:14;1.30;;;1.20;;
66707;SDS011;53622;0.000;0.000;2022-08-05T05:09:51;0.90;;;0.90;;
66707;SDS011;53622;0.000;0.000;2022-08-05T05:12:20;1.20;;;1.20;;
66707;SDS011;53622;0.000;0.000;2022-08-05T05:14:53;1.20;;;1.20;;
66707;SDS011;53622;0.000;0.000;2022-08-05T05:17:23;1.42;;;1.33;;
66707;SDS011;53622;0.000;0.000;2022-08-05T05:20:12;1.40;;;1.30;;
66707;SDS011;53622;0.000;0.000;2022-08-05T05:22:46;0.90;;;0.90;;
66707;SDS011;53622;0.000;0.000;2022-08-05T05:25:16;1.50;;;1.40;;
66707;SDS011;53622;0.000;0.000;2022-08-05T05:27:58;1.10;;;1.10;;
66707;SDS011;53622;0.000;0.000;2022-08-05T05:30:27;1.20;;;1.10;;
66707;SDS011;53622;0.000;0.000;2022-08-05T05:32:59;1.10;;;1.10;;
66707;SDS011;53622;0.000;0.000;2022-08-05T05:35:43;1.20;;;1.15;;
66707;SDS011;53622;0.000;0.000;2022-08-05T05:38:14;1.33;;;1.23;;
66707;SDS011;53622;0.000;0.000;2022-08-05T05:40:55;1.40;;;1.30;;
66707;SDS011;53622;0.000;0.000;2022-08-05T05:43:24;1.30;;;1.20;;
66707;SDS011;53622;0.000;0.000;2022-08-05T05:46:13;1.30;;;1.27;;
66707;SDS011;53622;0.000;0.000;2022-08-05T05:48:45;1.20;;;1.20;;
66707;SDS011;53622;0.000;0.000;2022-08-05T05:51:18;1.10;;;1.10;;
66707;SDS011;53622;0.000;0.000;2022-08-05T05:53:49;1.35;;;1.25;;
66707;SDS011;53622;0.000;0.000;2022-08-05T05:56:28;1.30;;;1.20;;
66707;SDS011;53622;0.000;0.000;2022-08-05T05:59:01;1.40;;;1.30;;
66707;SDS011;53622;0.000;0.000;2022-08-05T06:01:33;1.40;;;1.30;;
66707;SDS011;53622;0.000;0.000;2022-08-05T06:04:06;1.30;;;1.20;;
66707;SDS011;53622;0.000;0.000;2022-08-05T06:06:38;1.52;;;1.42;;
66707;SDS011;53622;0.000;0.000;2022-08-05T06:09:12;1.50;;;1.40;;
66707;SDS011;53622;0.000;0.000;2022-08-05T06:11:53;1.30;;;1.20;;
66707;SDS011;53622;0.000;0.000;2022-08-05T06:14:28;1.33;;;1.20;;
66707;SDS011;53622;0.000;0.000;2022-08-05T06:16:59;1.30;;;1.20;;
66707;SDS011;53622;0.000;0.000;2022-08-05T06:19:48;1.42;;;1.33;;
66707;SDS011;53622;0.000;0.000;2022-08-05T06:22:25;1.27;;;1.27;;
66707;SDS011;53622;0.000;0.000;2022-08-05T06:24:55;1.38;;;1.27;;
66707;SDS011;53622;0.000;0.000;2022-08-05T06:27:26;1.38;;;1.27;;
66707;SDS011;53622;0.000;0.000;2022-08-05T06:30:16;1.40;;;1.30;;
66707;SDS011;53622;0.000;0.000;2022-08-05T06:32:47;1.30;;;1.20;;
66707;SDS011;53622;0.000;0.000;2022-08-05T06:35:18;1.17;;;1.15;;
66707;SDS011;53622;0.000;0.000;2022-08-05T06:38:07;1.27;;;1.17;;
66707;SDS011;53622;0.000;0.000;2022-08-05T06:40:38;1.40;;;1.30;;
66707;SDS011;53622;0.000;0.000;2022-08-05T06:43:12;1.52;;;1.42;;
66707;SDS011;53622;0.000;0.000;2022-08-05T06:46:01;1.52;;;1.42;;
66707;SDS011;53622;0.000;0.000;2022-08-05T06:48:33;1.55;;;1.45;;
66707;SDS011;53622;0.000;0.000;2022-08-05T06:51:23;1.40;;;1.30;;
66707;SDS011;53622;0.000;0.000;2022-08-05T06:53:56;1.42;;;1.33;;
66707;SDS011;53622;0.000;0.000;2022-08-05T06:56:26;1.40;;;1.30;;
66707;SDS011;53622;0.000;0.000;2022-08-05T06:58:57;1.45;;;1.35;;
66707;SDS011;53622;0.000;0.000;2022-08-05T07:01:26;1.50;;;1.40;;
66707;SDS011;53622;0.000;0.000;2022-08-05T07:03:58;1.15;;;1.15;;
66707;SDS011;53622;0.000;0.000;2022-08-05T07:06:29;1.85;;;1.50;;
66707;SDS011;53622;0.000;0.000;2022-08-05T07:08:58;1.40;;;1.30;;
66707;SDS011;53622;0.000;0.000;2022-08-05T07:11:31;1.55;;;1.45;;
66707;SDS011;53622;0.000;0.000;2022-08-05T07:14:04;1.50;;;1.40;;
66707;SDS011;53622;0.000;0.000;2022-08-05T07:16:56;1.45;;;1.35;;
66707;SDS011;53622;0.000;0.000;2022-08-05T07:19:50;1.50;;;1.40;;
66707;SDS011;53622;0.000;0.000;2022-08-05T07:22:40;1.30;;;1.20;;
66707;SDS011;53622;0.000;0.000;2022-08-05T07:25:11;1.48;;;1.38;;
66707;SDS011;53622;0.000;0.000;2022-08-05T07:28:01;1.50;;;1.40;;
66707;SDS011;53622;0.000;0.000;2022-08-05T07:30:37;1.40;;;1.30;;
66707;SDS011;53622;0.000;0.000;2022-08-05T07:33:07;1.88;;;1.77;;
66707;SDS011;53622;0.000;0.000;2022-08-05T07:35:42;1.48;;;1.38;;
66707;SDS011;53622;0.000;0.000;2022-08-05T07:38:32;1.85;;;1.30;;
66707;SDS011;53622;0.000;0.000;2022-08-05T07:41:10;1.50;;;1.40;;
66707;SDS011;53622;0.000;0.000;2022-08-05T07:44:03;1.73;;;1.50;;
66707;SDS011;53622;0.000;0.000;2022-08-05T07:46:46;1.50;;;1.40;;
66707;SDS011;53622;0.000;0.000;2022-08-05T07:49:16;1.73;;;1.40;;
66707;SDS011;53622;0.000;0.000;2022-08-05T07:51:47;1.40;;;1.30;;
66707;SDS011;53622;0.000;0.000;2022-08-05T07:54:21;1.75;;;1.52;;
66707;SDS011;53622;0.000;0.000;2022-08-05T07:56:58;1.60;;;1.50;;
66707;SDS011;53622;0.000;0.000;2022-08-05T07:59:47;1.60;;;1.50;;
66707;SDS011;53622;0.000;0.000;2022-08-05T08:02:22;1.55;;;1.45;;
66707;SDS011;53622;0.000;0.000;2022-08-05T08:04:57;1.60;;;1.50;;
66707;SDS011;53622;0.000;0.000;2022-08-05T08:07:27;1.52;;;1.42;;
66707;SDS011;53622;0.000;0.000;2022-08-05T08:10:16;1.60;;;1.50;;
66707;SDS011;53622;0.000;0.000;2022-08-05T08:12:46;1.60;;;1.50;;
66707;SDS011;53622;0.000;0.000;2022-08-05T08:15:16;1.63;;;1.50;;
66707;SDS011;53622;0.000;0.000;2022-08-05T08:18:06;1.38;;;1.27;;
66707;SDS011;53622;0.000;0.000;2022-08-05T08:20:40;1.75;;;1.65;;
66707;SDS011;53622;0.000;0.000;2022-08-05T08:23:30;1.73;;;1.63;;
66707;SDS011;53622;0.000;0.000;2022-08-05T08:26:19;1.60;;;1.50;;
66707;SDS011;53622;0.000;0.000;2022-08-05T08:28:57;1.70;;;1.60;;
66707;SDS011;53622;0.000;0.000;2022-08-05T08:31:46;1.50;;;1.40;;
66707;SDS011;53622;0.000;0.000;2022-08-05T08:34:18;1.50;;;1.40;;
66707;SDS011;53622;0.000;0.000;2022-08-05T08:36:59;1.75;;;1.50;;
66707;SDS011;53622;0.000;0.000;2022-08-05T08:39:31;1.30;;;1.20;;
66707;SDS011;53622;0.000;0.000;2022-08-05T08:42:04;1.42;;;1.33;;
66707;SDS011;53622;0.000;0.000;2022-08-05T08:44:56;1.50;;;1.40;;
66707;SDS011;53622;0.000;0.000;2022-08-05T08:47:48;1.58;;;1.48;;
66707;SDS011;53622;0.000;0.000;2022-08-05T08:50:41;1.08;;;1.08;;
66707;SDS011;53622;0.000;0.000;2022-08-05T08:53:34;1.83;;;1.48;;
66707;SDS011;53622;0.000;0.000;2022-08-05T08:56:11;1.38;;;1.27;;
66707;SDS011;53622;0.000;0.000;2022-08-05T08:58:41;1.60;;;1.50;;
66707;SDS011;53622;0.000;0.000;2022-08-05T09:01:14;1.90;;;1.80;;
66707;SDS011;53622;0.000;0.000;2022-08-05T09:03:46;2.08;;;1.88;;
66707;SDS011;53622;0.000;0.000;2022-08-05T09:06:23;1.73;;;1.63;;
66707;SDS011;53622;0.000;0.000;2022-08-05T09:08:56;1.77;;;1.67;;
66707;SDS011;53622;0.000;0.000;2022-08-05T09:11:27;1.50;;;1.40;;
66707;SDS011;53622;0.000;0.000;2022-08-05T09:14:17;1.55;;;1.45;;
66707;SDS011;53622;0.000;0.000;2022-08-05T09:17:07;2.65;;;1.50;;
66707;SDS011;53622;0.000;0.000;2022-08-05T09:19:58;1.75;;;1.65;;
66707;SDS011;53622;0.000;0.000;2022-08-05T09:25:47;1.50;;;1.40;;
66707;SDS011;53622;0.000;0.000;2022-08-05T09:28:30;1.50;;;1.40;;
66707;SDS011;53622;0.000;0.000;2022-08-05T09:31:01;1.60;;;1.50;;
66707;SDS011;53622;0.000;0.000;2022-08-05T09:33:53;1.48;;;1.40;;
66707;SDS011;53622;0.000;0.000;2022-08-05T09:36:36;1.73;;;1.45;;
66707;SDS011;53622;0.000;0.000;2022-08-05T09:39:26;1.75;;;1.65;;
66707;SDS011;53622;0.000;0.000;2022-08-05T09:42:12;1.83;;;1.73;;
66707;SDS011;53622;0.000;0.000;2022-08-05T09:44:51;1.70;;;1.60;;
66707;SDS011;53622;0.000;0.000;2022-08-05T09:47:24;1.80;;;1.65;;
66707;SDS011;53622;0.000;0.000;2022-08-05T09:50:14;1.70;;;1.60;;
66707;SDS011;53622;0.000;0.000;2022-08-05T09:53:07;1.42;;;1.40;;
66707;SDS011;53622;0.000;0.000;2022-08-05T09:55:54;1.70;;;1.60;;
66707;SDS011;53622;0.000;0.000;2022-08-05T09:58:38;1.60;;;1.50;;
66707;SDS011;53622;0.000;0.000;2022-08-05T10:01:10;1.70;;;1.60;;
66707;SDS011;53622;0.000;0.000;2022-08-05T10:03:59;1.77;;;1.50;;
66707;SDS011;53622;0.000;0.000;2022-08-05T10:06:37;1.55;;;1.30;;
66707;SDS011;53622;0.000;0.000;2022-08-05T10:09:25;1.60;;;1.50;;
66707;SDS011;53622;0.000;0.000;2022-08-05T10:12:07;1.67;;;1.58;;
66707;SDS011;53622;0.000;0.000;2022-08-05T10:15:13;1.70;;;1.60;;
66707;SDS011;53622;0.000;0.000;2022-08-05T10:18:01;1.50;;;1.40;;
66707;SDS011;53622;0.000;0.000;2022-08-05T10:20:35;1.67;;;1.45;;
66707;SDS011;53622;0.000;0.000;2022-08-05T10:23:06;1.90;;;1.80;;
66707;SDS011;53622;0.000;0.000;2022-08-05T10:25:57;1.38;;;1.27;;
66707;SDS011;53622;0.000;0.000;2022-08-05T10:28:29;1.60;;;1.50;;
66707;SDS011;53622;0.000;0.000;2022-08-05T10:31:03;1.65;;;1.45;;
66707;SDS011;53622;0.000;0.000;2022-08-05T10:33:52;1.50;;;1.40;;
66707;SDS011;53622;0.000;0.000;2022-08-05T10:36:24;1.60;;;1.50;;
66707;SDS011;53622;0.000;0.000;2022-08-05T10:38:55;1.70;;;1.60;;
66707;SDS011;53622;0.000;0.000;2022-08-05T10:41:42;1.70;;;1.60;;
66707;SDS011;53622;0.000;0.000;2022-08-05T10:44:19;1.60;;;1.50;;
66707;SDS011;53622;0.000;0.000;2022-08-05T10:46:51;1.70;;;1.60;;
66707;SDS011;53622;0.000;0.000;2022-08-05T10:49:23;1.70;;;1.60;;
66707;SDS011;53622;0.000;0.000;2022-08-05T10:51:59;1.80;;;1.70;;
66707;SDS011;53622;0.000;0.000;2022-08-05T10:57:30;1.60;;;1.50;;
66707;SDS011;53622;0.000;0.000;2022-08-05T11:00:12;1.75;;;1.65;;
66707;SDS011;53622;0.000;0.000;2022-08-05T11:06:02;1.60;;;1.50;;
66707;SDS011;53622;0.000;0.000;2022-08-05T11:11:43;1.50;;;1.40;;
66707;SDS011;53622;0.000;0.000;2022-08-05T11:14:23;1.52;;;1.42;;
66707;SDS011;53622;0.000;0.000;2022-08-05T11:17:28;1.77;;;1.67;;
66707;SDS011;53622;0.000;0.000;2022-08-05T11:20:32;1.60;;;1.52;;
66707;SDS011;53622;0.000;0.000;2022-08-05T11:23:26;2.22;;;1.50;;
66707;SDS011;53622;0.000;0.000;2022-08-05T11:26:20;1.70;;;1.60;;
66707;SDS011;53622;0.000;0.000;2022-08-05T11:28:58;1.70;;;1.60;;
66707;SDS011;53622;0.000;0.000;2022-08-05T11:31:43;1.88;;;1.77;;
66707;SDS011;53622;0.000;0.000;2022-08-05T11:34:37;1.50;;;1.40;;
66707;SDS011;53622;0.000;0.000;2022-08-05T11:37:40;1.50;;;1.40;;
66707;SDS011;53622;0.000;0.000;2022-08-05T11:43:41;2.15;;;1.40;;
66707;SDS011;53622;0.000;0.000;2022-08-05T11:46:32;1.60;;;1.50;;
66707;SDS011;53622;0.000;0.000;2022-08-05T11:49:04;1.50;;;1.40;;
66707;SDS011;53622;0.000;0.000;2022-08-05T11:51:37;1.58;;;1.48;;
66707;SDS011;53622;0.000;0.000;2022-08-05T11:54:22;1.80;;;1.70;;
66707;SDS011;53622;0.000;0.000;2022-08-05T11:57:01;1.85;;;1.70;;
66707;SDS011;53622;0.000;0.000;2022-08-05T11:59:50;1.60;;;1.50;;
66707;SDS011;53622;0.000;0.000;2022-08-05T12:02:23;1.40;;;1.30;;
66707;SDS011;53622;0.000;0.000;2022-08-05T12:04:59;1.50;;;1.40;;
66707;SDS011;53622;0.000;0.000;2022-08-05T12:07:35;1.33;;;1.33;;
66707;SDS011;53622;0.000;0.000;2022-08-05T12:10:26;1.65;;;1.55;;
66707;SDS011;53622;0.000;0.000;2022-08-05T12:13:12;1.70;;;1.60;;
66707;SDS011;53622;0.000;0.000;2022-08-05T12:16:03;1.70;;;1.60;;
66707;SDS011;53622;0.000;0.000;2022-08-05T12:18:41;1.55;;;1.45;;
66707;SDS011;53622;0.000;0.000;2022-08-05T12:21:20;1.77;;;1.67;;
66707;SDS011;53622;0.000;0.000;2022-08-05T12:24:00;1.48;;;1.38;;
66707;SDS011;53622;0.000;0.000;2022-08-05T12:26:33;1.70;;;1.60;;
66707;SDS011;53622;0.000;0.000;2022-08-05T12:29:05;1.70;;;1.60;;
66707;SDS011;53622;0.000;0.000;2022-08-05T12:31:45;1.58;;;1.48;;
66707;SDS011;53622;0.000;0.000;2022-08-05T12:34:21;1.70;;;1.60;;
66707;SDS011;53622;0.000;0.000;2022-08-05T12:36:55;1.80;;;1.70;;
66707;SDS011;53622;0.000;0.000;2022-08-05T12:39:30;1.60;;;1.50;;
66707;SDS011;53622;0.000;0.000;2022-08-05T12:42:08;1.80;;;1.70;;
66707;SDS011;53622;0.000;0.000;2022-08-05T12:44:41;1.90;;;1.80;;
66707;SDS011;53622;0.000;0.000;2022-08-05T12:47:24;1.92;;;1.83;;
66707;SDS011;53622;0.000;0.000;2022-08-05T12:49:57;1.70;;;1.60;;
66707;SDS011;53622;0.000;0.000;2022-08-05T12:52:32;1.70;;;1.60;;
66707;SDS011;53622;0.000;0.000;2022-08-05T12:55:16;1.67;;;1.58;;
66707;SDS011;53622;0.000;0.000;2022-08-05T12:57:49;2.42;;;1.85;;
66707;SDS011;53622;0.000;0.000;2022-08-05T13:00:43;1.80;;;1.70;;
66707;SDS011;53622;0.000;0.000;2022-08-05T13:03:34;1.77;;;1.67;;
66707;SDS011;53622;0.000;0.000;2022-08-05T13:06:08;1.85;;;1.75;;
66707;SDS011;53622;0.000;0.000;2022-08-05T13:08:42;1.90;;;1.80;;
66707;SDS011;53622;0.000;0.000;2022-08-05T13:11:21;1.83;;;1.70;;
66707;SDS011;53622;0.000;0.000;2022-08-05T13:14:13;1.85;;;1.75;;
66707;SDS011;53622;0.000;0.000;2022-08-05T13:17:06;1.85;;;1.75;;
66707;SDS011;53622;0.000;0.000;2022-08-05T13:19:37;2.10;;;1.92;;
66707;SDS011;53622;0.000;0.000;2022-08-05T13:22:19;2.00;;;1.85;;
66707;SDS011;53622;0.000;0.000;2022-08-05T13:24:56;3.20;;;1.65;;
66707;SDS011;53622;0.000;0.000;2022-08-05T13:27:37;1.77;;;1.67;;
66707;SDS011;53622;0.000;0.000;2022-08-05T13:30:09;1.80;;;1.70;;
66707;SDS011;53622;0.000;0.000;2022-08-05T13:32:59;1.77;;;1.67;;
66707;SDS011;53622;0.000;0.000;2022-08-05T13:35:29;1.70;;;1.60;;
66707;SDS011;53622;0.000;0.000;2022-08-05T13:38:18;1.60;;;1.50;;
66707;SDS011;53622;0.000;0.000;2022-08-05T13:41:00;2.80;;;1.80;;
66707;SDS011;53622;0.000;0.000;2022-08-05T13:43:32;1.80;;;1.70;;
66707;SDS011;53622;0.000;0.000;2022-08-05T13:46:17;1.88;;;1.77;;
66707;SDS011;53622;0.000;0.000;2022-08-05T13:49:07;1.90;;;1.80;;
66707;SDS011;53622;0.000;0.000;2022-08-05T13:51:38;1.67;;;1.58;;
66707;SDS011;53622;0.000;0.000;2022-08-05T13:54:13;1.75;;;1.65;;
66707;SDS011;53622;0.000;0.000;2022-08-05T13:56:51;1.42;;;1.33;;
66707;SDS011;53622;0.000;0.000;2022-08-05T13:59:22;1.80;;;1.70;;
66707;SDS011;53622;0.000;0.000;2022-08-05T14:01:57;1.60;;;1.50;;
66707;SDS011;53622;0.000;0.000;2022-08-05T14:04:28;1.67;;;1.58;;
66707;SDS011;53622;0.000;0.000;2022-08-05T14:07:18;2.42;;;1.65;;
66707;SDS011;53622;0.000;0.000;2022-08-05T14:10:10;1.95;;;1.85;;
66707;SDS011;53622;0.000;0.000;2022-08-05T14:12:53;1.90;;;1.80;;
66707;SDS011;53622;0.000;0.000;2022-08-05T14:15:25;1.73;;;1.63;;
66707;SDS011;53622;0.000;0.000;2022-08-05T14:18:15;2.10;;;1.98;;
66707;SDS011;53622;0.000;0.000;2022-08-05T14:20:50;1.70;;;1.60;;
66707;SDS011;53622;0.000;0.000;2022-08-05T14:23:21;1.90;;;1.80;;
66707;SDS011;53622;0.000;0.000;2022-08-05T14:25:55;2.35;;;1.75;;
66707;SDS011;53622;0.000;0.000;2022-08-05T14:28:26;1.90;;;1.80;;
66707;SDS011;53622;0.000;0.000;2022-08-05T14:30:58;2.00;;;1.90;;
66707;SDS011;53622;0.000;0.000;2022-08-05T14:33:28;2.00;;;1.90;;
66707;SDS011;53622;0.000;0.000;2022-08-05T14:36:19;2.72;;;2.20;;
66707;SDS011;53622;0.000;0.000;2022-08-05T14:38:49;2.40;;;2.20;;
66707;SDS011;53622;0.000;0.000;2022-08-05T14:41:20;2.05;;;1.95;;
66707;SDS011;53622;0.000;0.000;2022-08-05T14:43:49;2.17;;;2.08;;
66707;SDS011;53622;0.000;0.000;2022-08-05T14:46:33;2.40;;;2.20;;
66707;SDS011;53622;0.000;0.000;2022-08-05T14:49:03;2.50;;;2.30;;
66707;SDS011;53622;0.000;0.000;2022-08-05T14:51:34;2.10;;;1.90;;
66707;SDS011;53622;0.000;0.000;2022-08-05T14:54:09;2.20;;;2.10;;
66707;SDS011;53622;0.000;0.000;2022-08-05T14:56:56;2.35;;;2.15;;
66707;SDS011;53622;0.000;0.000;2022-08-05T14:59:26;2.28;;;2.08;;
66707;SDS011;53622;0.000;0.000;2022-08-05T15:02:03;2.45;;;2.25;;
66707;SDS011;53622;0.000;0.000;2022-08-05T15:04:42;2.10;;;2.00;;
66707;SDS011;53622;0.000;0.000;2022-08-05T15:07:15;2.85;;;2.03;;
66707;SDS011;53622;0.000;0.000;2022-08-05T15:10:05;2.88;;;2.33;;
66707;SDS011;53622;0.000;0.000;2022-08-05T15:12:36;2.20;;;2.00;;
66707;SDS011;53622;0.000;0.000;2022-08-05T15:15:25;2.75;;;2.00;;
66707;SDS011;53622;0.000;0.000;2022-08-05T15:18:16;2.30;;;2.10;;
66707;SDS011;53622;0.000;0.000;2022-08-05T15:20:45;2.40;;;2.20;;
66707;SDS011;53622;0.000;0.000;2022-08-05T15:23:15;2.20;;;2.10;;
66707;SDS011;53622;0.000;0.000;2022-08-05T15:25:44;2.20;;;2.10;;
66707;SDS011;53622;0.000;0.000;2022-08-05T15:28:20;2.33;;;2.03;;
66707;SDS011;53622;0.000;0.000;2022-08-05T15:30:53;2.17;;;1.88;;
66707;SDS011;53622;0.000;0.000;2022-08-05T15:33:24;2.40;;;2.30;;
66707;SDS011;53622;0.000;0.000;2022-08-05T15:36:14;2.35;;;2.15;;
66707;SDS011;53622;0.000;0.000;2022-08-05T15:38:51;2.40;;;2.20;;
66707;SDS011;53622;0.000;0.000;2022-08-05T15:41:41;2.42;;;2.20;;
66707;SDS011;53622;0.000;0.000;2022-08-05T15:44:24;2.30;;;2.10;;
66707;SDS011;53622;0.000;0.000;2022-08-05T15:46:56;2.55;;;2.35;;
66707;SDS011;53622;0.000;0.000;2022-08-05T15:49:29;2.53;;;2.33;;
66707;SDS011;53622;0.000;0.000;2022-08-05T15:52:19;2.65;;;2.45;;
66707;SDS011;53622;0.000;0.000;2022-08-05T15:55:10;2.42;;;2.30;;
66707;SDS011;53622;0.000;0.000;2022-08-05T15:57:43;2.00;;;1.90;;
66707;SDS011;53622;0.000;0.000;2022-08-05T16:00:15;2.42;;;2.22;;
66707;SDS011;53622;0.000;0.000;2022-08-05T16:02:54;2.40;;;2.20;;
66707;SDS011;53622;0.000;0.000;2022-08-05T16:05:26;2.10;;;2.00;;
66707;SDS011;53622;0.000;0.000;2022-08-05T16:07:57;2.42;;;2.10;;
66707;SDS011;53622;0.000;0.000;2022-08-05T16:10:27;2.45;;;2.10;;
66707;SDS011;53622;0.000;0.000;2022-08-05T16:12:56;2.38;;;2.22;;
66707;SDS011;53622;0.000;0.000;2022-08-05T16:15:26;2.10;;;2.00;;
66707;SDS011;53622;0.000;0.000;2022-08-05T16:18:00;2.35;;;2.15;;
66707;SDS011;53622;0.000;0.000;2022-08-05T16:20:36;2.60;;;2.40;;
66707;SDS011;53622;0.000;0.000;2022-08-05T16:23:06;2.60;;;2.40;;
66707;SDS011;53622;0.000;0.000;2022-08-05T16:25:35;2.60;;;2.40;;
66707;SDS011;53622;0.000;0.000;2022-08-05T16:28:05;2.17;;;2.03;;